< Typhoon 196023 1960 Season Typhoon 196025 >
Typhoon 196024 (MAMIE)
General InformationTrack Information on Google Maps || Disaster Info.ResourceGoogle EarthGE AnimationAtom FeedGeoJSON
Detalied Best Track (Time Zone = UTC)
Year Month Day Hour Lat. Long. Pressure (hPa) Wind (kt) Class Image Chart
1960 10 11 12 10.5 162.5 1008 0 2 -- Chart
1960 10 11 18 10.3 161.5 1006 0 2 -- Chart
1960 10 12 00 10.0 160.5 1006 0 2 -- Chart
1960 10 12 06 9.5 159.5 1004 0 2 -- Chart
1960 10 12 12 9.2 158.2 1004 0 2 -- Chart
1960 10 12 18 9.0 157.0 1004 0 2 -- Chart
1960 10 13 00 9.2 156.0 1004 0 2 -- Chart
1960 10 13 06 9.5 155.0 1002 0 2 -- Chart
1960 10 13 12 9.8 153.9 1004 0 2 -- Chart
1960 10 13 18 10.4 152.7 1004 0 2 -- Chart
1960 10 14 00 11.3 151.3 1004 0 2 -- Chart
1960 10 14 06 12.3 150.1 1002 0 2 -- Chart
1960 10 14 12 13.5 148.8 1002 0 2 -- Chart
1960 10 14 18 14.7 147.6 998 0 2 -- Chart
1960 10 15 00 15.4 146.9 995 0 9 -- Chart
1960 10 15 06 16.2 146.3 990 0 9 -- Chart
1960 10 15 12 17.1 145.5 990 0 9 -- Chart
1960 10 15 18 18.0 144.7 988 0 9 -- Chart
1960 10 16 00 18.7 144.0 985 0 9 -- Chart
1960 10 16 06 19.1 143.1 980 0 9 -- Chart
1960 10 16 12 19.5 142.4 980 0 9 -- Chart
1960 10 16 18 19.8 141.8 980 0 9 -- Chart
1960 10 17 00 20.2 141.0 975 0 9 -- Chart
1960 10 17 06 20.2 140.8 970 0 9 -- Chart
1960 10 17 12 20.6 140.8 955 0 9 -- Chart
1960 10 17 18 20.9 140.9 950 0 9 -- Chart
1960 10 18 00 21.1 141.0 945 0 9 -- Chart
1960 10 18 06 21.7 141.2 940 0 9 -- Chart
1960 10 18 12 22.5 141.6 940 0 9 -- Chart
1960 10 18 18 23.7 142.1 940 0 9 -- Chart
1960 10 19 00 25.0 142.7 945 0 9 -- Chart
1960 10 19 06 26.7 143.1 950 0 9 -- Chart
1960 10 19 12 28.8 143.4 955 0 9 -- Chart
1960 10 19 18 31.0 143.7 960 0 9 -- Chart
1960 10 20 00 33.2 143.8 970 0 9 -- Chart
1960 10 20 06 34.0 144.9 975 0 9 -- Chart
1960 10 20 12 34.7 146.3 980 0 9 -- Chart
1960 10 20 18 35.9 147.9 985 0 9 -- Chart
1960 10 21 00 37.0 149.0 990 0 6 -- Chart
1960 10 21 06 38.0 151.0 990 0 6 -- Chart
1960 10 21 12 39.1 152.5 990 0 6 -- Chart
1960 10 21 18 40.0 154.0 990 0 6 -- Chart
1960 10 22 00 40.5 155.0 992 0 6 -- Chart
1960 10 22 06 41.0 156.0 994 0 6 -- Chart
1960 10 22 12 40.0 158.0 998 0 6 -- Chart
1960 10 22 18 39.0 158.0 1002 0 6 -- Chart
1960 10 23 00 38.0 157.5 1006 0 6 -- Chart
1960 10 23 06 37.5 158.0 1006 0 6 -- Chart
1960 10 23 12 37.8 158.5 1006 0 6 -- Chart
1960 10 23 18 38.2 159.0 1000 0 6 -- Chart
1960 10 24 00 38.4 160.5 996 0 6 -- Chart
1960 10 24 06 38.4 162.0 1000 0 6 -- Chart
1960 10 24 12 39.0 164.2 996 0 6 -- Chart
1960 10 24 18 39.6 167.0 1000 0 6 -- Chart
1960 10 25 00 41.0 169.0 994 0 6 -- Chart
1960 10 25 06 42.0 172.3 994 0 6 -- Chart
1960 10 25 12 41.7 174.0 992 0 6 -- Chart
1960 10 25 18 41.2 176.0 990 0 6 -- Chart
1960 10 26 00 41.0 180.0 994 0 6 -- Chart
1960 10 26 06 41.6 182.0 994 0 6 -- Chart
Japan Meteorological Agency Best Track Data | Correction Date : 1989-06-01
< Typhoon 196023 1960 Season Typhoon 196025 >

Help